Time;durP1;ratioP1;P1;durP2;ratioP2;P2;SDS_P1;SDS_P2;PMS_P1;PMS_P2;Temp;Humidity;BMP_temperature;BMP_pressure;BME280_temperature;BME280_humidity;BME280_pressure;Samples;Min_cycle;Max_cycle;Signal;HPM_P1;HPM_P2
2022/11/22 00:01:18;;;;;;;11.93;1.30;;;5.50;99.90;;;;;;5046575;28;20056;-60
2022/11/22 00:03:44;;;;;;;8.85;1.15;;;5.50;99.90;;;;;;5009767;28;20049;-60
2022/11/22 00:06:11;;;;;;;5.78;1.55;;;5.50;99.90;;;;;;5041935;28;20064;-60
2022/11/22 00:08:38;;;;;;;4.15;0.93;;;5.50;99.90;;;;;;5048143;28;20472;-59
2022/11/22 00:11:04;;;;;;;11.73;1.55;;;5.40;99.90;;;;;;5030442;28;20049;-60
2022/11/22 00:13:31;;;;;;;8.27;1.55;;;5.30;99.90;;;;;;5047906;28;20416;-59
2022/11/22 00:16:02;;;;;;;9.40;1.80;;;5.30;99.90;;;;;;5047828;28;20051;-59
2022/11/22 00:18:29;;;;;;;7.32;0.98;;;5.30;99.90;;;;;;5047976;28;20110;-59
2022/11/22 00:20:55;;;;;;;8.18;1.08;;;5.30;99.90;;;;;;5047586;28;20364;-59
2022/11/22 00:23:22;;;;;;;4.85;0.90;;;5.30;99.90;;;;;;5046678;28;20171;-59
2022/11/22 00:25:49;;;;;;;7.47;1.63;;;5.30;99.90;;;;;;5047845;28;20042;-57
2022/11/22 00:28:16;;;;;;;8.93;1.10;;;5.30;99.90;;;;;;5037011;28;20041;-60
2022/11/22 00:30:42;;;;;;;2.80;1.10;;;5.30;99.90;;;;;;5046347;28;20041;-59
2022/11/22 00:33:09;;;;;;;5.05;1.40;;;5.30;99.90;;;;;;5029898;28;20135;-59
2022/11/22 00:35:36;;;;;;;8.88;1.73;;;5.30;99.90;;;;;;5047833;28;20051;-59
2022/11/22 00:38:03;;;;;;;9.20;1.58;;;5.20;99.90;;;;;;5048000;28;20648;-59
2022/11/22 00:40:30;;;;;;;5.22;1.40;;;5.20;99.90;;;;;;5048358;28;20045;-59
2022/11/22 00:42:56;;;;;;;5.15;0.98;;;5.20;99.90;;;;;;5047486;28;20103;-60
2022/11/22 00:45:23;;;;;;;3.95;1.55;;;5.20;99.90;;;;;;5030097;28;20130;-59
2022/11/22 00:47:50;;;;;;;5.50;1.30;;;5.20;99.90;;;;;;5047812;28;20216;-60
2022/11/22 00:50:17;;;;;;;3.10;0.75;;;5.20;99.90;;;;;;5048006;28;20049;-61
2022/11/22 00:52:43;;;;;;;4.70;0.90;;;5.20;99.90;;;;;;5049894;28;20571;-59
2022/11/22 00:55:10;;;;;;;4.57;1.27;;;5.20;99.90;;;;;;5051669;28;20128;-57
2022/11/22 00:57:37;;;;;;;8.05;1.35;;;5.20;99.90;;;;;;5051438;28;20415;-60
2022/11/22 01:00:05;;;;;;;25.33;3.33;;;5.20;99.90;;;;;;5051587;28;20049;-60
2022/11/22 01:02:32;;;;;;;11.02;1.65;;;5.20;99.90;;;;;;5051373;28;20507;-60
2022/11/22 01:04:58;;;;;;;7.88;1.15;;;5.20;99.90;;;;;;5051488;28;20045;-60
2022/11/22 01:07:25;;;;;;;7.15;1.58;;;5.20;99.90;;;;;;5050992;28;20539;-60
2022/11/22 01:09:52;;;;;;;1.67;0.82;;;5.30;99.90;;;;;;5051737;28;20111;-58
2022/11/22 01:12:19;;;;;;;3.72;1.00;;;5.20;99.90;;;;;;4700089;27;10000621;-59
2022/11/22 01:14:45;;;;;;;3.55;0.90;;;5.20;99.90;;;;;;5047663;28;20136;-60
2022/11/22 01:17:12;;;;;;;6.28;1.50;;;5.20;99.90;;;;;;5050610;28;20052;-60
2022/11/22 01:19:39;;;;;;;3.80;1.20;;;5.20;99.90;;;;;;5051403;28;20044;-60
2022/11/22 01:22:05;;;;;;;8.90;1.60;;;5.20;99.90;;;;;;5051211;28;20055;-60
2022/11/22 01:24:32;;;;;;;3.20;0.80;;;5.30;99.90;;;;;;5049637;28;20964;-60
2022/11/22 01:26:59;;;;;;;10.93;1.70;;;5.30;99.90;;;;;;5051065;28;20049;-60
2022/11/22 01:29:26;;;;;;;5.35;1.00;;;5.30;99.90;;;;;;5050643;28;20056;-59
2022/11/22 01:31:53;;;;;;;9.93;3.90;;;5.30;99.90;;;;;;5050746;28;20057;-59
2022/11/22 01:34:19;;;;;;;2.70;1.02;;;5.40;99.90;;;;;;5050662;28;20059;-59
2022/11/22 01:36:46;;;;;;;8.00;1.85;;;5.40;99.90;;;;;;5050709;28;20634;-60
2022/11/22 01:39:14;;;;;;;15.98;3.50;;;5.50;99.90;;;;;;5050621;28;20041;-60
2022/11/22 01:41:40;;;;;;;4.43;1.15;;;5.60;99.90;;;;;;5050773;28;20045;-60
2022/11/22 01:44:29;;;;;;;5.90;1.40;;;5.60;99.90;;;;;;5050851;28;20045;-59
2022/11/22 01:47:01;;;;;;;4.13;0.90;;;5.60;99.90;;;;;;5050539;28;20049;-60
2022/11/22 01:49:30;;;;;;;7.47;1.10;;;5.60;99.90;;;;;;5049310;28;20471;-59
2022/11/22 01:52:03;;;;;;;5.15;1.00;;;5.60;99.90;;;;;;5049525;28;20048;-59
2022/11/22 01:54:32;;;;;;;8.80;1.58;;;5.50;99.90;;;;;;5048895;28;20498;-59
2022/11/22 01:57:03;;;;;;;13.52;1.08;;;5.50;99.90;;;;;;5029192;28;20379;-61
2022/11/22 01:59:30;;;;;;;4.30;0.85;;;5.50;99.90;;;;;;5040498;28;20045;-59
2022/11/22 02:01:58;;;;;;;10.45;2.08;;;5.50;99.90;;;;;;5049411;28;20053;-59
2022/11/22 02:04:25;;;;;;;5.50;0.90;;;5.50;99.90;;;;;;5050097;28;20132;-59
2022/11/22 02:07:02;;;;;;;4.47;0.93;;;5.70;99.90;;;;;;5049469;28;20053;-59
2022/11/22 02:09:29;;;;;;;7.18;1.05;;;5.60;99.90;;;;;;5048934;28;20048;-60
2022/11/22 02:11:59;;;;;;;7.40;2.22;;;5.50;99.90;;;;;;5050257;28;20045;-58
2022/11/22 02:14:26;;;;;;;4.13;1.00;;;5.50;99.90;;;;;;5048816;28;20051;-59
2022/11/22 02:16:53;;;;;;;9.10;1.20;;;5.50;99.90;;;;;;5037793;28;20575;-59
2022/11/22 02:19:44;;;;;;;5.47;1.17;;;5.50;99.90;;;;;;5049784;28;20518;-59
2022/11/22 02:22:20;;;;;;;2.78;1.13;;;5.50;99.90;;;;;;5039204;28;20484;-59
2022/11/22 02:25:19;;;;;;;2.05;0.70;;;5.50;99.90;;;;;;5031972;28;20466;-58
2022/11/22 02:27:47;;;;;;;3.30;0.90;;;5.50;99.90;;;;;;5007197;28;20045;-59
2022/11/22 02:30:14;;;;;;;6.93;1.00;;;5.50;99.90;;;;;;5048072;28;20045;-59
2022/11/22 02:32:41;;;;;;;4.40;0.88;;;5.50;99.90;;;;;;5048668;28;20049;-57
2022/11/22 02:35:14;;;;;;;5.65;1.05;;;5.50;99.90;;;;;;5049568;28;20040;-59
2022/11/22 02:37:41;;;;;;;7.50;1.00;;;5.50;99.90;;;;;;5039909;28;20484;-57
2022/11/22 02:40:08;;;;;;;2.58;0.75;;;5.50;99.90;;;;;;5049589;28;20075;-58
2022/11/22 02:42:35;;;;;;;4.82;0.80;;;5.60;99.90;;;;;;5031826;28;20052;-59
2022/11/22 02:45:02;;;;;;;2.05;0.90;;;5.70;99.90;;;;;;5048211;28;20060;-59
2022/11/22 02:47:29;;;;;;;8.40;1.02;;;5.70;99.90;;;;;;5049751;28;20419;-59
2022/11/22 02:49:56;;;;;;;7.57;2.38;;;5.80;99.90;;;;;;5049701;28;20059;-59
2022/11/22 02:52:22;;;;;;;5.03;1.33;;;5.80;99.90;;;;;;5049554;28;20063;-59
2022/11/22 02:54:49;;;;;;;5.80;0.90;;;5.90;99.90;;;;;;5049417;28;20049;-59
2022/11/22 02:57:16;;;;;;;2.60;0.88;;;5.90;99.90;;;;;;5048900;28;20048;-59
2022/11/22 02:59:42;;;;;;;2.55;1.10;;;5.80;99.90;;;;;;5049296;28;20526;-59
2022/11/22 03:02:09;;;;;;;2.45;1.08;;;5.80;99.90;;;;;;5049074;28;20123;-59
2022/11/22 03:04:36;;;;;;;6.18;1.10;;;5.80;99.90;;;;;;5049392;28;20060;-59
2022/11/22 03:07:03;;;;;;;9.35;1.27;;;5.70;99.90;;;;;;5049002;28;20559;-60
2022/11/22 03:09:31;;;;;;;3.08;1.00;;;5.70;99.90;;;;;;5049237;28;20132;-60
2022/11/22 03:11:58;;;;;;;9.40;2.55;;;5.70;99.90;;;;;;5048811;28;20526;-60
2022/11/22 03:14:24;;;;;;;3.05;1.02;;;5.70;99.90;;;;;;5048527;28;20572;-57
2022/11/22 03:16:51;;;;;;;7.38;0.95;;;5.70;99.90;;;;;;5049219;28;20045;-59
2022/11/22 03:19:18;;;;;;;9.70;1.58;;;5.60;99.90;;;;;;5049224;28;20048;-59
2022/11/22 03:21:45;;;;;;;3.63;0.88;;;5.60;99.90;;;;;;5048678;28;20500;-58
2022/11/22 03:24:12;;;;;;;4.40;0.98;;;5.60;99.90;;;;;;5047507;28;20049;-59
2022/11/22 03:26:39;;;;;;;4.07;0.68;;;5.60;99.90;;;;;;5048728;28;20037;-60
2022/11/22 03:29:05;;;;;;;5.15;2.70;;;5.50;99.90;;;;;;5049403;28;20049;-58
2022/11/22 03:31:32;;;;;;;6.97;1.10;;;5.50;99.90;;;;;;5048684;28;20137;-59
2022/11/22 03:33:59;;;;;;;6.18;0.80;;;5.50;99.90;;;;;;5048022;28;20506;-60
2022/11/22 03:36:26;;;;;;;2.10;0.77;;;5.50;99.90;;;;;;5051393;28;20267;-59
2022/11/22 03:38:52;;;;;;;6.80;1.00;;;5.40;99.90;;;;;;5055541;28;20055;-61
2022/11/22 03:41:19;;;;;;;4.50;1.00;;;5.40;99.90;;;;;;5056316;28;20521;-60
2022/11/22 03:43:46;;;;;;;3.95;0.80;;;5.40;99.90;;;;;;5054703;28;20051;-59
2022/11/22 03:46:16;;;;;;;3.10;0.95;;;5.40;99.90;;;;;;5047722;28;20121;-59
2022/11/22 03:48:43;;;;;;;3.88;1.15;;;5.30;99.90;;;;;;5047482;28;20067;-56
2022/11/22 03:51:10;;;;;;;4.15;0.88;;;5.30;99.90;;;;;;5048598;28;20059;-59
2022/11/22 03:53:37;;;;;;;2.63;0.70;;;5.30;99.90;;;;;;5046829;28;20056;-59
2022/11/22 03:56:04;;;;;;;3.75;0.60;;;5.40;99.90;;;;;;5048833;28;20048;-59
2022/11/22 03:58:31;;;;;;;1.83;1.25;;;5.40;99.90;;;;;;5048486;28;20040;-59
2022/11/22 04:00:58;;;;;;;7.93;2.08;;;5.40;99.90;;;;;;5048493;28;20419;-59
2022/11/22 04:03:25;;;;;;;9.45;1.00;;;5.40;99.90;;;;;;5043356;28;20554;-58
2022/11/22 04:05:52;;;;;;;2.53;0.95;;;5.40;99.90;;;;;;5040371;28;20053;-59
2022/11/22 04:08:19;;;;;;;4.65;0.80;;;5.40;99.90;;;;;;5048289;28;20045;-59
2022/11/22 04:10:48;;;;;;;3.83;0.68;;;5.40;99.90;;;;;;5047048;28;20116;-59
2022/11/22 04:13:15;;;;;;;9.90;0.88;;;5.40;99.90;;;;;;5048400;28;20043;-58
2022/11/22 04:15:41;;;;;;;5.13;1.10;;;5.40;99.90;;;;;;5048025;28;20052;-58
2022/11/22 04:18:09;;;;;;;3.92;1.00;;;5.40;99.90;;;;;;5048187;28;20411;-59
2022/11/22 04:23:22;;;;;;;1.65;0.70;;;5.40;99.90;;;;;;5048387;28;20049;-60
2022/11/22 04:25:53;;;;;;;3.25;0.63;;;5.40;99.90;;;;;;5048356;28;20049;-60
2022/11/22 04:28:21;;;;;;;3.22;0.60;;;5.40;99.90;;;;;;5051668;28;20152;-58
2022/11/22 04:33:54;;;;;;;3.45;0.80;;;5.50;99.90;;;;;;5053543;28;20063;-59
2022/11/22 04:36:20;;;;;;;3.85;0.88;;;5.50;99.90;;;;;;5055616;28;20048;-60
2022/11/22 04:38:47;;;;;;;4.47;1.17;;;5.50;99.90;;;;;;5054907;28;20144;-60
2022/11/22 04:41:14;;;;;;;4.80;1.15;;;5.50;99.90;;;;;;5051666;28;20480;-60
2022/11/22 04:46:26;;;;;;;5.93;0.90;;;5.50;99.90;;;;;;5051522;28;20567;-60
2022/11/22 04:48:53;;;;;;;4.82;1.00;;;5.50;99.90;;;;;;5053398;28;20059;-60
2022/11/22 04:54:05;;;;;;;1.70;0.65;;;5.50;99.90;;;;;;5054723;28;20049;-60
2022/11/22 04:56:31;;;;;;;1.92;0.63;;;5.50;99.90;;;;;;5052244;28;20304;-60
2022/11/22 04:58:58;;;;;;;6.43;1.60;;;5.50;99.90;;;;;;5053248;28;20067;-60
2022/11/22 05:01:25;;;;;;;6.05;1.40;;;5.50;99.90;;;;;;5051646;28;20064;-60
2022/11/22 05:03:51;;;;;;;8.52;1.05;;;5.50;99.90;;;;;;5052421;28;20164;-60
2022/11/22 05:06:18;;;;;;;8.25;0.85;;;5.50;99.90;;;;;;5052163;28;20057;-60
2022/11/22 05:08:45;;;;;;;9.80;0.90;;;5.50;99.90;;;;;;5051229;28;20061;-60
2022/11/22 05:11:12;;;;;;;9.38;1.38;;;5.50;99.90;;;;;;5051934;28;20044;-60
2022/11/22 05:13:41;;;;;;;5.63;0.80;;;5.60;99.90;;;;;;5051930;28;20053;-60
2022/11/22 05:16:09;;;;;;;2.47;0.90;;;5.60;99.90;;;;;;5049933;28;20045;-60
2022/11/22 05:18:36;;;;;;;10.05;1.17;;;5.60;99.90;;;;;;5050078;28;20044;-59
2022/11/22 05:21:07;;;;;;;7.82;1.58;;;5.60;99.90;;;;;;5051015;28;20045;-60
2022/11/22 05:26:29;;;;;;;9.65;1.25;;;5.60;99.90;;;;;;5051280;28;20045;-60
2022/11/22 05:28:59;;;;;;;2.35;0.77;;;5.70;99.90;;;;;;5051378;28;20049;-59
2022/11/22 05:31:26;;;;;;;3.28;0.90;;;5.70;99.90;;;;;;5050709;28;20067;-60
2022/11/22 05:33:55;;;;;;;4.70;0.60;;;5.70;99.90;;;;;;5051473;28;20100;-60
2022/11/22 05:36:22;;;;;;;8.98;1.85;;;5.70;99.90;;;;;;5051037;28;20045;-60
2022/11/22 05:38:49;;;;;;;4.63;0.95;;;5.70;99.90;;;;;;5050541;28;20415;-60
2022/11/22 05:41:16;;;;;;;2.85;0.80;;;5.70;99.90;;;;;;5049762;28;20411;-60
2022/11/22 05:43:43;;;;;;;5.25;1.08;;;5.70;99.90;;;;;;5052112;28;20384;-60
2022/11/22 05:46:13;;;;;;;3.78;1.15;;;5.70;99.90;;;;;;5051795;28;20045;-61
2022/11/22 05:48:45;;;;;;;18.95;4.20;;;5.70;99.90;;;;;;5052276;28;20407;-60
2022/11/22 05:51:13;;;;;;;9.13;3.28;;;5.70;99.90;;;;;;5050762;28;20040;-60
2022/11/22 05:53:41;;;;;;;7.10;1.17;;;5.70;99.90;;;;;;5048032;28;20523;-61
2022/11/22 05:56:08;;;;;;;8.90;1.33;;;5.70;99.90;;;;;;5051208;28;20094;-63
2022/11/22 05:58:35;;;;;;;14.82;2.03;;;5.70;99.90;;;;;;5048683;28;20491;-60
2022/11/22 06:01:06;;;;;;;2.47;1.15;;;5.70;99.90;;;;;;5049267;28;20049;-61
2022/11/22 06:03:33;;;;;;;6.80;0.98;;;5.70;99.90;;;;;;5050253;28;20055;-60
2022/11/22 06:06:02;;;;;;;3.85;1.25;;;5.70;99.90;;;;;;5049243;28;20140;-59
2022/11/22 06:08:29;;;;;;;3.60;1.13;;;5.70;99.90;;;;;;5049935;28;20058;-60
2022/11/22 06:11:12;;;;;;;4.45;1.00;;;5.60;99.90;;;;;;5048296;28;20052;-61
2022/11/22 06:13:40;;;;;;;3.80;0.98;;;5.60;99.90;;;;;;5048616;28;20547;-60
2022/11/22 06:16:07;;;;;;;3.80;0.80;;;5.60;99.90;;;;;;5048898;28;20084;-60
2022/11/22 06:18:34;;;;;;;8.93;1.73;;;5.60;99.90;;;;;;5050090;28;20099;-60
2022/11/22 06:21:03;;;;;;;5.18;1.20;;;5.60;99.90;;;;;;5050171;28;20421;-60
2022/11/22 06:23:30;;;;;;;3.85;1.05;;;5.60;99.90;;;;;;5032033;28;20045;-61
2022/11/22 06:25:58;;;;;;;5.47;0.77;;;5.60;99.90;;;;;;5048795;28;20124;-61
2022/11/22 06:28:25;;;;;;;7.72;1.52;;;5.60;99.90;;;;;;5048623;28;20059;-60
2022/11/22 06:30:52;;;;;;;0.63;0.45;;;5.60;99.90;;;;;;5048398;28;20079;-60
2022/11/22 06:33:19;;;;;;;3.15;0.88;;;5.50;99.90;;;;;;5049539;28;20049;-60
2022/11/22 06:35:46;;;;;;;3.25;0.52;;;5.50;99.90;;;;;;5049891;28;20516;-60
2022/11/22 06:38:12;;;;;;;2.65;1.00;;;5.50;99.90;;;;;;5049554;28;20896;-61
2022/11/22 06:40:39;;;;;;;2.17;0.55;;;5.50;99.90;;;;;;5049802;28;20051;-60
2022/11/22 06:43:06;;;;;;;1.45;0.68;;;5.50;99.90;;;;;;5049629;28;20051;-61
2022/11/22 06:45:33;;;;;;;3.97;0.80;;;5.50;99.90;;;;;;5049933;28;20045;-61
2022/11/22 06:47:59;;;;;;;2.30;1.00;;;5.40;99.90;;;;;;5048117;28;20049;-60
2022/11/22 06:50:26;;;;;;;2.97;0.88;;;5.40;99.90;;;;;;5047121;28;20199;-60
2022/11/22 06:52:53;;;;;;;2.95;0.90;;;5.50;99.90;;;;;;5048307;28;20053;-60
2022/11/22 06:55:19;;;;;;;3.15;1.50;;;5.40;99.90;;;;;;5049314;28;20056;-61
2022/11/22 06:58:06;;;;;;;1.98;0.80;;;5.50;99.90;;;;;;5049390;28;20053;-61
2022/11/22 07:00:33;;;;;;;3.83;0.60;;;5.50;99.90;;;;;;5048926;28;20041;-61
2022/11/22 07:03:00;;;;;;;5.00;0.70;;;5.50;99.90;;;;;;5049018;28;20045;-61
2022/11/22 07:05:26;;;;;;;7.60;1.00;;;5.50;99.90;;;;;;5048597;28;20064;-61
2022/11/22 07:07:55;;;;;;;5.57;0.82;;;5.50;99.90;;;;;;5049230;28;20420;-60
2022/11/22 07:10:34;;;;;;;3.22;0.77;;;5.50;99.90;;;;;;5027855;28;20054;-60
2022/11/22 07:13:01;;;;;;;6.82;1.58;;;5.60;99.90;;;;;;5031676;28;20049;-60
2022/11/22 07:15:28;;;;;;;6.95;1.58;;;5.50;99.90;;;;;;5047458;28;20059;-61
2022/11/22 07:17:55;;;;;;;3.38;2.58;;;5.50;99.90;;;;;;5058288;28;20114;-60
2022/11/22 07:20:22;;;;;;;4.57;0.88;;;5.60;99.90;;;;;;5039714;28;20512;-59
2022/11/22 07:22:49;;;;;;;3.63;1.10;;;5.60;99.90;;;;;;5053501;28;20389;-61
2022/11/22 07:25:15;;;;;;;1.70;0.90;;;5.60;99.90;;;;;;5053412;28;20041;-60
2022/11/22 07:27:42;;;;;;;4.97;1.10;;;5.60;99.90;;;;;;5050756;28;20055;-61
2022/11/22 07:30:10;;;;;;;3.28;0.90;;;5.60;99.90;;;;;;5032973;28;20036;-61
2022/11/22 07:32:37;;;;;;;4.75;1.10;;;5.60;99.90;;;;;;5050138;28;20052;-60
2022/11/22 07:35:04;;;;;;;6.95;3.17;;;5.70;99.90;;;;;;5030485;28;20082;-60
2022/11/22 07:37:31;;;;;;;3.67;1.05;;;5.60;99.90;;;;;;5048752;28;20053;-60
2022/11/22 07:39:59;;;;;;;3.53;0.93;;;5.70;99.90;;;;;;5048739;28;20051;-60
2022/11/22 07:42:25;;;;;;;12.30;1.83;;;5.70;99.90;;;;;;5047393;28;20036;-60
2022/11/22 07:44:52;;;;;;;2.28;0.77;;;5.70;99.90;;;;;;5046930;28;20514;-61
2022/11/22 07:47:19;;;;;;;7.20;0.90;;;5.70;99.90;;;;;;5046671;28;20045;-59
2022/11/22 07:49:48;;;;;;;6.47;1.25;;;5.70;99.90;;;;;;5047823;28;20076;-60
2022/11/22 07:52:15;;;;;;;7.00;0.52;;;5.70;99.90;;;;;;5047287;28;20132;-60
2022/11/22 07:54:42;;;;;;;2.25;0.70;;;5.70;99.90;;;;;;5048335;28;20506;-61
2022/11/22 07:57:09;;;;;;;4.18;0.90;;;5.80;99.90;;;;;;5048113;28;20045;-61
2022/11/22 07:59:35;;;;;;;2.88;1.02;;;5.80;99.90;;;;;;5026913;28;20046;-60
2022/11/22 08:02:02;;;;;;;5.60;0.98;;;5.80;99.90;;;;;;5029651;28;20140;-61
2022/11/22 08:04:29;;;;;;;5.13;1.55;;;5.80;99.90;;;;;;5045802;28;20098;-61
2022/11/22 08:06:56;;;;;;;3.88;0.80;;;5.90;99.90;;;;;;5028813;28;20127;-60
2022/11/22 08:09:23;;;;;;;6.35;1.33;;;5.90;99.90;;;;;;5044167;28;20500;-61
2022/11/22 08:11:49;;;;;;;6.22;1.20;;;6.00;99.90;;;;;;5037109;28;20051;-60
2022/11/22 08:14:16;;;;;;;9.50;1.70;;;6.00;99.90;;;;;;5048685;28;20052;-60
2022/11/22 08:16:44;;;;;;;2.38;0.80;;;6.10;99.90;;;;;;5048081;28;20155;-60
2022/11/22 08:19:16;;;;;;;5.93;2.47;;;6.10;99.90;;;;;;5048374;28;20060;-60
2022/11/22 08:21:47;;;;;;;3.05;0.95;;;6.20;99.90;;;;;;5047793;28;20045;-60
2022/11/22 08:24:14;;;;;;;4.68;1.25;;;6.20;99.90;;;;;;5047846;28;20560;-60
2022/11/22 08:26:42;;;;;;;2.50;0.95;;;6.20;99.90;;;;;;5048389;28;20102;-60
2022/11/22 08:29:10;;;;;;;3.78;1.10;;;6.20;99.90;;;;;;5046843;28;20088;-60
2022/11/22 08:31:40;;;;;;;1.88;0.68;;;6.20;99.90;;;;;;5047176;28;20060;-59
2022/11/22 08:34:07;;;;;;;6.07;1.25;;;6.30;99.90;;;;;;5047453;28;20163;-61
2022/11/22 08:36:33;;;;;;;7.93;1.33;;;6.30;99.90;;;;;;5047408;28;20060;-61
2022/11/22 08:39:00;;;;;;;4.50;1.65;;;6.40;99.90;;;;;;5045711;28;20055;-60
2022/11/22 08:41:27;;;;;;;2.60;1.10;;;6.40;99.90;;;;;;5047742;28;20136;-61
2022/11/22 08:43:54;;;;;;;3.22;1.00;;;6.40;99.90;;;;;;5047697;28;20416;-61
2022/11/22 08:46:21;;;;;;;4.85;1.05;;;6.40;99.90;;;;;;5047195;28;20071;-61
2022/11/22 08:48:47;;;;;;;7.32;1.45;;;6.50;99.90;;;;;;5046835;28;20511;-61
2022/11/22 08:51:14;;;;;;;2.50;1.23;;;6.50;99.90;;;;;;5029292;28;20059;-60
2022/11/22 08:53:42;;;;;;;6.13;2.00;;;6.50;99.90;;;;;;5045113;28;20049;-60
2022/11/22 08:56:13;;;;;;;3.60;1.13;;;6.60;99.90;;;;;;5044757;28;20053;-60
2022/11/22 08:58:39;;;;;;;9.38;1.35;;;6.70;99.90;;;;;;5027984;28;20048;-60
2022/11/22 09:01:16;;;;;;;3.03;1.33;;;6.70;99.90;;;;;;5044103;28;20231;-60
2022/11/22 09:03:43;;;;;;;6.72;0.80;;;6.90;99.90;;;;;;5046465;28;20488;-60
2022/11/22 09:06:15;;;;;;;1.77;0.85;;;6.90;99.90;;;;;;5046643;28;20057;-60
2022/11/22 09:09:02;;;;;;;3.97;0.98;;;6.90;99.90;;;;;;5032000;28;20048;-60
2022/11/22 09:11:49;;;;;;;2.03;0.80;;;7.00;99.90;;;;;;5047573;28;20045;-60
2022/11/22 09:14:15;;;;;;;2.85;1.00;;;7.10;99.90;;;;;;5048777;28;20099;-61
2022/11/22 09:16:42;;;;;;;6.03;0.70;;;7.20;99.90;;;;;;5050917;28;20049;-60
2022/11/22 09:19:09;;;;;;;4.13;1.02;;;7.30;99.90;;;;;;5051324;28;20053;-60
2022/11/22 09:21:36;;;;;;;3.58;1.17;;;7.40;99.90;;;;;;5050351;28;20048;-60
2022/11/22 09:24:03;;;;;;;4.22;0.93;;;7.40;99.90;;;;;;5050028;28;20041;-60
2022/11/22 09:26:30;;;;;;;1.77;0.95;;;7.40;99.90;;;;;;5050266;28;20056;-59
2022/11/22 09:28:57;;;;;;;4.15;1.08;;;7.40;99.90;;;;;;5050946;28;20568;-60
2022/11/22 09:31:24;;;;;;;4.60;0.90;;;7.40;99.90;;;;;;5051132;28;20088;-60
2022/11/22 09:33:51;;;;;;;4.32;0.90;;;7.40;99.90;;;;;;5050048;28;20041;-60
2022/11/22 09:36:19;;;;;;;1.35;0.75;;;7.50;99.90;;;;;;5050194;28;20041;-61
2022/11/22 09:38:46;;;;;;;3.90;0.98;;;7.50;99.90;;;;;;5049867;28;20060;-62
2022/11/22 09:41:16;;;;;;;5.82;0.80;;;7.50;99.90;;;;;;5033521;28;20140;-61
2022/11/22 09:44:11;;;;;;;5.03;1.00;;;7.50;99.90;;;;;;5051477;28;20080;-61
2022/11/22 09:46:59;;;;;;;6.40;0.90;;;7.60;99.90;;;;;;5049625;28;20049;-61
2022/11/22 09:49:42;;;;;;;7.50;1.17;;;7.60;99.90;;;;;;5051134;28;20048;-60
2022/11/22 09:52:33;;;;;;;3.67;0.93;;;7.60;99.90;;;;;;5040153;28;20565;-60
2022/11/22 09:55:03;;;;;;;4.35;0.75;;;7.70;99.90;;;;;;5030920;28;20079;-61
2022/11/22 09:57:38;;;;;;;5.32;2.53;;;7.70;99.90;;;;;;5051281;28;20049;-61
2022/11/22 10:00:20;;;;;;;1.40;0.77;;;7.80;99.90;;;;;;5049474;28;20053;-61
2022/11/22 10:02:59;;;;;;;3.60;1.30;;;7.80;99.90;;;;;;5050081;28;20553;-61
2022/11/22 10:05:45;;;;;;;4.65;1.00;;;7.90;99.90;;;;;;5050964;28;20057;-61
2022/11/22 10:08:47;;;;;;;2.25;0.68;;;7.90;99.90;;;;;;5035819;28;20602;-61
2022/11/22 10:11:20;;;;;;;1.75;1.02;;;7.90;99.90;;;;;;5035851;28;20407;-60
2022/11/22 10:13:51;;;;;;;7.85;1.95;;;7.90;99.90;;;;;;5050218;28;20063;-61
2022/11/22 10:16:40;;;;;;;1.13;0.52;;;7.90;99.90;;;;;;5050109;28;20084;-60
2022/11/22 10:19:10;;;;;;;3.17;0.73;;;7.90;99.90;;;;;;5033528;28;20071;-60
2022/11/22 10:21:36;;;;;;;5.10;1.00;;;8.00;99.90;;;;;;5051385;28;20063;-60
2022/11/22 10:24:03;;;;;;;1.85;0.85;;;8.00;99.90;;;;;;5050105;28;20041;-62
2022/11/22 10:26:34;;;;;;;4.38;0.90;;;8.00;99.90;;;;;;5051140;28;20427;-60
2022/11/22 10:29:22;;;;;;;6.78;1.10;;;8.00;99.90;;;;;;5049717;28;20047;-60
2022/11/22 10:32:01;;;;;;;8.13;1.17;;;8.00;99.90;;;;;;5050847;28;20079;-60
2022/11/22 10:34:50;;;;;;;5.78;1.17;;;8.00;99.90;;;;;;5049983;28;20045;-59
2022/11/22 10:37:17;;;;;;;5.78;1.05;;;8.00;99.90;;;;;;5045570;28;20555;-60
2022/11/22 10:40:02;;;;;;;2.17;0.88;;;8.00;99.90;;;;;;5050789;28;20393;-60
2022/11/22 10:42:55;;;;;;;4.30;1.15;;;8.00;99.90;;;;;;5050441;28;20135;-60
2022/11/22 10:45:37;;;;;;;2.30;0.80;;;8.10;99.90;;;;;;5030802;28;20691;-59
2022/11/22 10:48:19;;;;;;;9.43;1.50;;;8.10;99.90;;;;;;5047728;28;20053;-60
2022/11/22 10:50:49;;;;;;;4.03;1.40;;;8.10;99.90;;;;;;5034777;28;20658;-59
2022/11/22 10:53:42;;;;;;;4.05;0.95;;;8.20;99.90;;;;;;5050342;28;20045;-61
2022/11/22 10:56:25;;;;;;;4.05;0.82;;;8.30;99.90;;;;;;5049630;28;20475;-62
2022/11/22 10:59:13;;;;;;;8.60;1.30;;;8.40;99.90;;;;;;5049387;28;20419;-60
2022/11/22 11:01:48;;;;;;;9.50;2.53;;;8.50;99.90;;;;;;5032483;28;20049;-60
2022/11/22 11:04:15;;;;;;;8.60;1.40;;;8.60;99.90;;;;;;5049401;28;20130;-60
2022/11/22 11:06:49;;;;;;;8.63;1.05;;;8.60;99.90;;;;;;5050257;28;20064;-60
2022/11/22 11:09:44;;;;;;;5.40;2.15;;;8.70;99.90;;;;;;5024796;28;20049;-61
2022/11/22 11:12:49;;;;;;;6.25;0.90;;;8.70;99.90;;;;;;5036318;28;20045;-62
2022/11/22 11:15:22;;;;;;;;;;;8.80;99.90;;;;;;5049445;28;20070;-61
2022/11/22 11:17:56;;;;;;;5.13;1.15;;;8.80;99.90;;;;;;5054126;28;19924;-59
2022/11/22 11:20:34;;;;;;;6.60;1.38;;;8.90;99.90;;;;;;5039242;28;20095;-60
2022/11/22 11:23:00;;;;;;;5.47;1.95;;;8.90;99.90;;;;;;5035704;28;20061;-60
2022/11/22 11:25:47;;;;;;;6.13;2.25;;;9.00;99.90;;;;;;5050410;28;20531;-60
2022/11/22 11:28:22;;;;;;;6.50;2.13;;;9.00;99.90;;;;;;5049159;28;20041;-62
2022/11/22 11:30:57;;;;;;;5.53;1.70;;;9.10;99.90;;;;;;5050006;28;20518;-61
2022/11/22 11:33:29;;;;;;;10.23;2.30;;;9.10;99.90;;;;;;5049975;28;20045;-61
2022/11/22 11:36:01;;;;;;;9.65;1.58;;;9.10;99.90;;;;;;5049735;28;20044;-60
2022/11/22 11:38:40;;;;;;;9.40;2.67;;;9.00;99.90;;;;;;5032069;28;20080;-61
2022/11/22 11:41:36;;;;;;;7.03;1.50;;;9.10;99.90;;;;;;5049992;28;20052;-61
2022/11/22 11:44:23;;;;;;;9.18;2.13;;;9.00;99.90;;;;;;5042590;28;20044;-60
2022/11/22 11:46:49;;;;;;;6.68;2.95;;;9.10;99.90;;;;;;5031925;28;20462;-60
2022/11/22 11:49:17;;;;;;;7.80;1.77;;;9.10;99.90;;;;;;5049529;28;20044;-60
2022/11/22 11:52:03;;;;;;;5.68;1.70;;;9.20;99.90;;;;;;5048136;28;20532;-60
2022/11/22 11:54:41;;;;;;;4.47;1.27;;;9.20;99.90;;;;;;5048201;28;20368;-60
2022/11/22 11:57:18;;;;;;;4.32;1.63;;;9.30;99.90;;;;;;5032226;28;20055;-60
2022/11/22 11:59:46;;;;;;;9.20;2.25;;;9.30;99.90;;;;;;5048391;28;20059;-60
2022/11/22 12:02:32;;;;;;;9.88;2.00;;;9.40;99.90;;;;;;5053013;28;20163;-60
2022/11/22 12:05:19;;;;;;;10.10;2.33;;;9.40;99.90;;;;;;5051070;28;20053;-61
2022/11/22 12:07:46;;;;;;;4.47;2.03;;;9.40;99.90;;;;;;5051592;28;20049;-60
2022/11/22 12:10:54;;;;;;;8.00;1.65;;;9.40;99.90;;;;;;5035057;28;20045;-60
2022/11/22 12:13:52;;;;;;;6.95;1.77;;;9.30;99.90;;;;;;5014812;28;20051;-60
2022/11/22 12:16:42;;;;;;;8.50;1.80;;;9.30;99.90;;;;;;5048612;28;20049;-60
2022/11/22 12:19:17;;;;;;;3.97;1.13;;;9.30;99.90;;;;;;5034803;28;20103;-60
2022/11/22 12:22:09;;;;;;;12.57;2.72;;;9.30;99.90;;;;;;5052275;28;20140;-60
2022/11/22 12:24:52;;;;;;;8.98;1.50;;;9.20;99.90;;;;;;5050698;28;20049;-60
2022/11/22 12:27:38;;;;;;;7.82;2.00;;;9.30;99.90;;;;;;5041303;28;20492;-61
2022/11/22 12:30:10;;;;;;;6.68;1.70;;;9.30;99.90;;;;;;5047981;28;20099;-61
2022/11/22 12:32:40;;;;;;;4.93;1.38;;;9.50;99.90;;;;;;5048332;28;20041;-61
2022/11/22 12:35:12;;;;;;;8.43;1.40;;;9.60;99.90;;;;;;5028557;28;20053;-60
2022/11/22 12:37:49;;;;;;;5.45;1.80;;;9.70;99.90;;;;;;5048374;28;20083;-60
2022/11/22 12:40:16;;;;;;;8.57;1.85;;;9.70;99.90;;;;;;5048243;28;20045;-61
2022/11/22 12:42:46;;;;;;;8.02;1.90;;;9.80;99.90;;;;;;5037103;28;20049;-61
2022/11/22 12:45:31;;;;;;;7.47;1.30;;;9.70;99.90;;;;;;5047842;28;20102;-60
2022/11/22 12:48:02;;;;;;;6.43;1.30;;;9.80;99.90;;;;;;5039197;28;20045;-60
2022/11/22 12:50:40;;;;;;;8.45;2.08;;;9.70;99.90;;;;;;5051540;28;20081;-60
2022/11/22 12:53:12;;;;;;;12.25;1.80;;;9.70;99.90;;;;;;5041120;28;20057;-60
2022/11/22 12:55:56;;;;;;;3.50;1.17;;;9.70;99.90;;;;;;5051820;28;20041;-60
2022/11/22 12:58:39;;;;;;;3.92;1.50;;;9.70;99.90;;;;;;5047852;28;20111;-59
2022/11/22 13:01:16;;;;;;;3.78;1.42;;;9.70;99.90;;;;;;5051310;28;20470;-60
2022/11/22 13:04:10;;;;;;;5.45;1.55;;;9.60;99.90;;;;;;5035779;28;20088;-60
2022/11/22 13:07:05;;;;;;;5.03;2.03;;;9.60;99.90;;;;;;5051272;28;20103;-60
2022/11/22 13:09:34;;;;;;;4.57;1.40;;;9.60;99.90;;;;;;5052631;28;20064;-61
2022/11/22 13:12:02;;;;;;;5.43;2.03;;;9.60;99.90;;;;;;5035106;28;20045;-61
2022/11/22 13:14:37;;;;;;;5.70;1.58;;;9.60;99.90;;;;;;5034879;28;20140;-61
2022/11/22 13:17:08;;;;;;;11.10;2.00;;;9.50;99.90;;;;;;5034558;28;20055;-61
2022/11/22 13:19:48;;;;;;;5.28;1.50;;;9.50;99.90;;;;;;5051101;28;20070;-61
2022/11/22 13:22:41;;;;;;;3.72;1.33;;;9.60;99.90;;;;;;5050946;28;20037;-61
2022/11/22 13:25:13;;;;;;;6.47;1.23;;;9.60;99.90;;;;;;5052565;28;20056;-61
2022/11/22 13:27:45;;;;;;;4.43;2.17;;;9.60;99.90;;;;;;5052169;28;20037;-61
2022/11/22 13:30:32;;;;;;;3.88;1.10;;;9.70;99.90;;;;;;5034336;28;20409;-61
2022/11/22 13:32:59;;;;;;;12.57;1.67;;;9.70;99.90;;;;;;5051523;28;20045;-61